createdAt,value
2023-02-24T00:00:55.751Z,99435.56
2023-02-24T00:03:45.365Z,99431.22
2023-02-24T00:06:36.963Z,99390.78
2023-02-24T00:09:26.533Z,99371.09
2023-02-24T00:12:15.825Z,99429.56
2023-02-24T00:15:02.419Z,99407.94
2023-02-24T00:17:48.905Z,99427.34
2023-02-24T00:20:36.436Z,99411.38
2023-02-24T00:23:23.852Z,99354.00
2023-02-24T00:26:11.944Z,99419.50
2023-02-24T00:29:00.458Z,99374.97
2023-02-24T00:31:49.767Z,99403.22
2023-02-24T00:34:38.375Z,99404.28
2023-02-24T00:37:26.195Z,99394.25
2023-02-24T00:40:12.937Z,99393.69
2023-02-24T00:43:01.564Z,99388.81
2023-02-24T00:45:51.631Z,99389.06
2023-02-24T00:48:41.026Z,99389.06
2023-02-24T00:51:29.157Z,99389.84
2023-02-24T00:54:16.694Z,99375.50
2023-02-24T00:57:03.815Z,99386.84
2023-02-24T00:59:53.077Z,99321.88
2023-02-24T01:02:39.942Z,99358.69
2023-02-24T01:05:29.973Z,99342.75
2023-02-24T01:08:21.591Z,99342.75
2023-02-24T01:11:27.372Z,99353.44
2023-02-24T01:14:18.034Z,99362.84
2023-02-24T01:17:05.830Z,99354.97
2023-02-24T01:19:52.678Z,99352.31
2023-02-24T01:22:43.612Z,99351.75
2023-02-24T01:25:31.492Z,99303.34
2023-02-24T01:28:18.226Z,99350.97
2023-02-24T01:31:08.562Z,99349.31
2023-02-24T01:33:55.227Z,99339.66
2023-02-24T01:36:45.072Z,99332.59
2023-02-24T01:39:31.573Z,99341.97
2023-02-24T01:42:20.620Z,99331.66
2023-02-24T01:45:14.740Z,99330.56
2023-02-24T01:48:05.669Z,99319.69
2023-02-24T01:50:53.209Z,99311.44
2023-02-24T01:53:39.666Z,99293.47
2023-02-24T01:56:31.166Z,99305.28
2023-02-24T01:59:21.235Z,99306.88
2023-02-24T02:02:08.716Z,99311.22
2023-02-24T02:05:04.438Z,99307.59
2023-02-24T02:07:51.312Z,99250.88
2023-02-24T02:10:40.095Z,99296.72
2023-02-24T02:13:29.682Z,99270.63
2023-02-24T02:16:41.945Z,99285.84
2023-02-24T02:20:16.547Z,99281.00
2023-02-24T02:23:16.255Z,99245.63
2023-02-24T02:26:32.670Z,99288.06
2023-02-24T02:29:34.572Z,99291.56
2023-02-24T02:32:52.359Z,99275.56
2023-02-24T02:35:48.953Z,99250.56
2023-02-24T02:39:00.516Z,99271.72
2023-02-24T02:42:15.005Z,99274.44
2023-02-24T02:45:09.537Z,99271.72
2023-02-24T02:48:07.428Z,99272.03
2023-02-24T02:50:57.976Z,99267.50
2023-02-24T02:54:10.480Z,99269.63
2023-02-24T02:57:13.511Z,99243.41
2023-02-24T03:00:10.551Z,99251.28
2023-02-24T03:03:10.139Z,99259.25
2023-02-24T03:06:01.535Z,99259.53
2023-02-24T03:08:54.057Z,99249.56
2023-02-24T03:11:53.912Z,99261.66
2023-02-24T03:14:43.410Z,99257.13
2023-02-24T03:17:33.815Z,99244.31
2023-02-24T03:20:49.195Z,99237.09
2023-02-24T03:23:40.245Z,99239.59
2023-02-24T03:26:37.385Z,99248.47
2023-02-24T03:29:28.155Z,99241.31
2023-02-24T03:32:24.979Z,99243.63
2023-02-24T03:35:20.977Z,99241.13
2023-02-24T03:38:07.410Z,99238.06
2023-02-24T03:40:55.034Z,99208.47
2023-02-24T03:43:47.699Z,99238.06
2023-02-24T03:46:35.352Z,99199.09
2023-02-24T03:49:22.632Z,99239.41
2023-02-24T03:52:27.189Z,99215.81
2023-02-24T03:55:47.750Z,99233.25
2023-02-24T03:59:13.627Z,99228.59
2023-02-24T04:02:33.180Z,99231.91
2023-02-24T04:05:24.135Z,99215.31
2023-02-24T04:08:16.388Z,99215.81
2023-02-24T04:11:14.646Z,99225.28
2023-02-24T04:14:09.423Z,99206.84
2023-02-24T04:17:05.981Z,99206.13
2023-02-24T04:19:55.993Z,99201.00
2023-02-24T04:22:49.070Z,99213.19
2023-02-24T04:25:36.060Z,99183.47
2023-02-24T04:28:23.537Z,99179.97
2023-02-24T04:31:17.732Z,99178.03
2023-02-24T04:34:09.485Z,99182.38
2023-02-24T04:37:02.417Z,99183.56
2023-02-24T04:39:51.006Z,99173.22
2023-02-24T04:42:47.221Z,99154.38
2023-02-24T04:45:34.422Z,99155.41
2023-02-24T04:48:20.628Z,99164.56
2023-02-24T04:51:06.946Z,99122.19
2023-02-24T04:53:55.592Z,99146.00
2023-02-24T04:56:44.484Z,99162.34
2023-02-24T04:59:30.800Z,99163.75
2023-02-24T05:02:20.283Z,99159.44
2023-02-24T05:05:09.788Z,99162.16
2023-02-24T05:08:06.362Z,99151.06
2023-02-24T05:10:54.941Z,99157.50
2023-02-24T05:13:45.242Z,99137.56
2023-02-24T05:16:32.088Z,99148.06
2023-02-24T05:19:38.930Z,99143.13
2023-02-24T05:22:25.817Z,99105.78
2023-02-24T05:25:14.543Z,99128.81
2023-02-24T05:28:04.132Z,99081.41
2023-02-24T05:30:52.164Z,99126.81
2023-02-24T05:33:42.677Z,99131.81
2023-02-24T05:36:36.587Z,99141.59
2023-02-24T05:39:27.231Z,99136.97
2023-02-24T05:42:13.662Z,99111.41
2023-02-24T05:45:00.155Z,99074.06
2023-02-24T05:47:47.539Z,99118.94
2023-02-24T05:50:39.129Z,99109.19
2023-02-24T05:53:25.742Z,99115.94
2023-02-24T05:56:12.163Z,99123.38
2023-02-24T05:59:03.038Z,99075.09
2023-02-24T06:01:55.289Z,99117.13
2023-02-24T06:04:51.498Z,99116.03
2023-02-24T06:07:43.253Z,99107.47
2023-02-24T06:10:32.005Z,99110.19
2023-02-24T06:13:18.576Z,99108.78
2023-02-24T06:16:08.585Z,99111.69
2023-02-24T06:18:56.700Z,99104.66
2023-02-24T06:21:43.930Z,99078.28
2023-02-24T06:24:35.339Z,99088.66
2023-02-24T06:27:25.640Z,99085.75
2023-02-24T06:30:16.035Z,99081.31
2023-02-24T06:33:02.529Z,99079.19
2023-02-24T06:35:49.233Z,99079.00
2023-02-24T06:38:36.861Z,99092.06
2023-02-24T06:41:23.741Z,99088.06
2023-02-24T06:44:15.326Z,99046.50
2023-02-24T06:47:05.358Z,99082.63
2023-02-24T06:49:52.025Z,99092.91
2023-02-24T06:52:40.939Z,99092.06
2023-02-24T06:55:28.794Z,99075.69
2023-02-24T06:58:19.904Z,99018.13
2023-02-24T07:01:12.192Z,99070.03
2023-02-24T07:09:45.783Z,99027.88
2023-02-24T07:12:36.149Z,99081.31
2023-02-24T07:15:30.747Z,99080.81
2023-02-24T07:18:22.743Z,99069.16
2023-02-24T07:21:12.520Z,99067.72
2023-02-24T07:23:59.633Z,99070.94
2023-02-24T07:26:52.053Z,99040.38
2023-02-24T07:29:39.235Z,99065.31
2023-02-24T07:32:31.859Z,99073.16
2023-02-24T07:35:24.014Z,99061.28
2023-02-24T07:38:10.410Z,99045.50
2023-02-24T07:41:02.163Z,99075.97
2023-02-24T07:43:52.807Z,99075.19
2023-02-24T07:46:40.850Z,99045.41
2023-02-24T07:49:30.350Z,99043.38
2023-02-24T07:52:17.703Z,99077.19
2023-02-24T07:55:04.205Z,99067.19
2023-02-24T07:57:51.818Z,99053.22
2023-02-24T08:00:59.380Z,99078.16
2023-02-24T08:03:46.325Z,99067.81
2023-02-24T08:06:45.484Z,99078.34
2023-02-24T08:09:46.633Z,99071.78
2023-02-24T08:12:35.350Z,99072.69
2023-02-24T08:15:24.842Z,99072.78
2023-02-24T08:18:12.658Z,99077.28
2023-02-24T08:21:04.699Z,99065.41
2023-02-24T08:23:54.562Z,99062.19
2023-02-24T08:26:44.890Z,99066.00
2023-02-24T08:29:58.439Z,99068.72
2023-02-24T08:32:46.853Z,99061.75
2023-02-24T08:35:38.414Z,99057.50
2023-02-24T08:38:42.479Z,99041.81
2023-02-24T08:41:46.887Z,98999.94
2023-02-24T08:44:35.162Z,99021.78
2023-02-24T08:47:31.098Z,99031.53
2023-02-24T08:50:20.666Z,99041.53
2023-02-24T08:53:10.886Z,99028.56
2023-02-24T08:56:11.512Z,99022.91
2023-02-24T08:59:06.016Z,99025.25
2023-02-24T09:02:13.350Z,99024.50
2023-02-24T09:05:03.908Z,99032.56
2023-02-24T09:07:54.886Z,99016.09
2023-02-24T09:10:42.429Z,98988.31
2023-02-24T09:13:33.253Z,99013.88
2023-02-24T09:16:20.741Z,99019.31
2023-02-24T09:19:27.907Z,99004.22
2023-02-24T09:22:29.745Z,99008.63
2023-02-24T09:25:24.355Z,98951.16
2023-02-24T09:28:32.919Z,98980.81
2023-02-24T09:31:19.726Z,99008.81
2023-02-24T09:34:11.127Z,98956.06
2023-02-24T09:37:03.771Z,98991.63
2023-02-24T09:40:03.407Z,98979.78
2023-02-24T09:42:58.902Z,98985.94
2023-02-24T09:45:58.729Z,98980.50
2023-02-24T09:48:54.669Z,98966.44
2023-02-24T09:51:44.137Z,98979.50
2023-02-24T09:54:32.550Z,98944.75
2023-02-24T09:57:25.613Z,98956.59
2023-02-24T10:00:26.313Z,98966.59
2023-02-24T10:03:41.648Z,98960.94
2023-02-24T10:06:35.525Z,98970.28
2023-02-24T10:09:35.849Z,98970.00
2023-02-24T10:12:40.292Z,98950.69
2023-02-24T10:15:49.079Z,98970.88
2023-02-24T10:19:11.835Z,98957.63
2023-02-24T10:22:06.518Z,98955.59
2023-02-24T10:25:54.275Z,98949.75
2023-02-24T10:28:54.460Z,98929.31
2023-02-24T10:31:48.113Z,98934.28
2023-02-24T10:34:35.465Z,98908.72
2023-02-24T10:37:29.177Z,98928.56
2023-02-24T10:40:26.696Z,98919.47
2023-02-24T10:43:18.881Z,98912.41
2023-02-24T10:46:17.598Z,98907.31
2023-02-24T10:49:09.796Z,98908.25
2023-02-24T10:51:57.451Z,98899.91
2023-02-24T10:55:05.183Z,98905.31
2023-02-24T10:58:06.116Z,98900.59
2023-02-24T11:01:12.498Z,98846.84
2023-02-24T11:04:01.784Z,98903.19
2023-02-24T11:06:52.924Z,98897.97
2023-02-24T11:09:52.800Z,98897.97
2023-02-24T11:13:10.074Z,98892.47
2023-02-24T11:16:15.385Z,98881.19
2023-02-24T11:19:02.659Z,98871.72
2023-02-24T11:21:48.992Z,98891.22
2023-02-24T11:24:37.561Z,98881.28
2023-02-24T11:27:25.270Z,98881.38
2023-02-24T11:30:37.410Z,98869.00
2023-02-24T11:34:01.933Z,98862.38
2023-02-24T11:36:56.709Z,98863.22
2023-02-24T11:40:02.864Z,98855.75
2023-02-24T11:42:54.736Z,98852.16
2023-02-24T11:46:08.501Z,98839.81
2023-02-24T11:48:57.289Z,98843.72
2023-02-24T11:51:44.788Z,98823.94
2023-02-24T11:54:41.887Z,98830.25
2023-02-24T11:57:34.476Z,98797.19
2023-02-24T12:00:24.542Z,98825.59
2023-02-24T12:03:20.401Z,98803.09
2023-02-24T12:06:18.835Z,98811.22
2023-02-24T12:09:14.239Z,98806.59
2023-02-24T12:12:11.804Z,98755.28
2023-02-24T12:15:01.312Z,98794.81
2023-02-24T12:18:11.756Z,98752.75
2023-02-24T12:21:08.574Z,98789.88
2023-02-24T12:23:55.918Z,98790.31
2023-02-24T12:27:03.349Z,98783.38
2023-02-24T12:29:54.982Z,98792.91
2023-02-24T12:33:00.723Z,98787.97
2023-02-24T12:36:29.247Z,98764.06
2023-02-24T12:39:31.960Z,98776.41
2023-02-24T12:42:18.286Z,98770.88
2023-02-24T12:45:45.486Z,98772.28
2023-02-24T12:48:50.712Z,98747.00
2023-02-24T12:51:42.806Z,98756.38
2023-02-24T12:54:32.052Z,98742.59
2023-02-24T12:57:46.392Z,98745.69
2023-02-24T13:00:41.934Z,98744.28
2023-02-24T13:03:32.986Z,98682.56
2023-02-24T13:06:28.229Z,98729.91
2023-02-24T13:09:52.744Z,98690.22
2023-02-24T13:12:56.264Z,98705.41
2023-02-24T13:16:02.663Z,98704.13
2023-02-24T13:18:49.826Z,98697.38
2023-02-24T13:21:36.175Z,98677.69
2023-02-24T13:24:24.072Z,98688.81
2023-02-24T13:27:13.382Z,98652.72
2023-02-24T13:30:05.471Z,98679.00
2023-02-24T13:33:24.304Z,98692.56
2023-02-24T13:36:15.502Z,98626.38
2023-02-24T13:39:41.537Z,98653.34
2023-02-24T13:42:30.847Z,98653.06
2023-02-24T13:45:19.443Z,98652.72
2023-02-24T13:48:15.248Z,98656.28
2023-02-24T13:51:16.314Z,98656.16
2023-02-24T13:54:15.638Z,98631.66
2023-02-24T13:57:07.797Z,98646.06
2023-02-24T14:00:02.191Z,98632.81
2023-02-24T14:02:58.970Z,98624.00
2023-02-24T14:05:48.091Z,98633.00
2023-02-24T14:08:51.113Z,98627.88
2023-02-24T14:11:37.988Z,98577.13
2023-02-24T14:14:24.690Z,98629.69
2023-02-24T14:17:41.648Z,98630.16
2023-02-24T14:20:33.394Z,98621.34
2023-02-24T14:23:25.672Z,98580.94
2023-02-24T14:26:14.031Z,98621.78
2023-02-24T14:29:01.783Z,98609.94
2023-02-24T14:31:50.769Z,98613.13
2023-02-24T14:34:37.268Z,98604.81
2023-02-24T14:37:26.056Z,98605.63
2023-02-24T14:40:15.657Z,98571.81
2023-02-24T14:43:03.878Z,98561.06
2023-02-24T14:45:52.277Z,98578.22
2023-02-24T14:48:38.939Z,98566.69
2023-02-24T14:51:36.274Z,98592.16
2023-02-24T14:54:31.952Z,98580.44
2023-02-24T14:57:28.887Z,98577.59
2023-02-24T15:00:24.447Z,98560.88
2023-02-24T15:03:29.472Z,98573.09
2023-02-24T15:06:21.258Z,98546.00
2023-02-24T15:09:14.378Z,98524.53
2023-02-24T15:12:09.308Z,98546.78
2023-02-24T15:15:13.553Z,98537.00
2023-02-24T15:18:08.957Z,98539.38
2023-02-24T15:21:28.132Z,98544.69
2023-02-24T15:24:32.499Z,98538.13
2023-02-24T15:27:21.609Z,98527.25
2023-02-24T15:30:22.241Z,98523.97
2023-02-24T15:33:18.124Z,98516.63
2023-02-24T15:36:09.302Z,98514.25
2023-02-24T15:38:59.925Z,98512.63
2023-02-24T15:41:47.701Z,98500.50
2023-02-24T15:44:35.698Z,98497.59
2023-02-24T15:47:25.973Z,98498.59
2023-02-24T15:50:13.377Z,98449.44
2023-02-24T15:53:01.206Z,98491.38
2023-02-24T15:55:47.506Z,98472.78
2023-02-24T15:58:34.850Z,98456.97
2023-02-24T16:01:21.824Z,98471.25
2023-02-24T16:04:11.763Z,98422.19
2023-02-24T16:06:58.741Z,98465.75
2023-02-24T16:09:45.977Z,98449.59
2023-02-24T16:12:39.538Z,98469.75
2023-02-24T16:15:29.739Z,98439.44
2023-02-24T16:18:22.737Z,98428.72
2023-02-24T16:21:09.355Z,98462.47
2023-02-24T16:23:58.907Z,98460.38
2023-02-24T16:26:47.808Z,98422.56
2023-02-24T16:29:34.186Z,98431.38
2023-02-24T16:32:25.896Z,98454.09
2023-02-24T16:35:13.759Z,98450.09
2023-02-24T16:38:00.612Z,98447.41
2023-02-24T16:40:49.719Z,98411.34
2023-02-24T16:43:37.779Z,98438.56
2023-02-24T16:46:40.171Z,98439.88
2023-02-24T16:49:26.704Z,98427.75
2023-02-24T16:52:13.692Z,98434.75
2023-02-24T16:55:02.788Z,98426.22
2023-02-24T16:57:49.462Z,98417.88
2023-02-24T17:00:42.789Z,98397.06
2023-02-24T17:03:44.145Z,98409.75
2023-02-24T17:06:35.215Z,98423.19
2023-02-24T17:09:22.509Z,98412.47
2023-02-24T17:12:12.554Z,98391.38
2023-02-24T17:14:59.452Z,98375.22
2023-02-24T17:17:46.185Z,98397.50
2023-02-24T17:20:33.366Z,98348.06
2023-02-24T17:23:22.739Z,98394.81
2023-02-24T17:26:11.019Z,98387.47
2023-02-24T17:28:57.400Z,98383.84
2023-02-24T17:31:44.579Z,98351.34
2023-02-24T17:34:31.971Z,98377.09
2023-02-24T17:37:19.294Z,98372.31
2023-02-24T17:40:06.985Z,98366.41
2023-02-24T17:42:56.499Z,98357.47
2023-02-24T17:45:51.112Z,98354.56
2023-02-24T17:48:37.832Z,98354.91
2023-02-24T17:51:24.517Z,98347.56
2023-02-24T17:54:11.803Z,98343.13
2023-02-24T17:56:58.109Z,98331.50
2023-02-24T17:59:48.216Z,98331.16
2023-02-24T18:02:35.255Z,98311.19
2023-02-24T18:05:22.019Z,98333.25
2023-02-24T18:08:08.440Z,98328.31
2023-02-24T18:10:55.086Z,98297.31
2023-02-24T18:13:41.474Z,98313.22
2023-02-24T18:16:28.562Z,98317.22
2023-02-24T18:19:16.837Z,98285.09
2023-02-24T18:22:03.588Z,98308.09
2023-02-24T18:24:52.037Z,98268.63
2023-02-24T18:27:38.683Z,98286.41
2023-02-24T18:30:25.061Z,98267.84
2023-02-24T18:33:11.787Z,98289.75
2023-02-24T18:36:01.873Z,98290.59
2023-02-24T18:38:48.414Z,98288.66
2023-02-24T18:41:34.694Z,98278.75
2023-02-24T18:44:21.380Z,98286.75
2023-02-24T18:47:09.923Z,98278.63
2023-02-24T18:49:57.148Z,98254.31
2023-02-24T18:52:43.684Z,98269.53
2023-02-24T18:55:30.398Z,98276.06
2023-02-24T18:58:16.765Z,98279.59
2023-02-24T19:01:18.113Z,98276.69
2023-02-24T19:04:06.539Z,98263.28
2023-02-24T19:06:55.601Z,98269.53
2023-02-24T19:09:59.230Z,98252.78
2023-02-24T19:12:47.440Z,98261.75
2023-02-24T19:15:38.221Z,98262.81
2023-02-24T19:18:26.207Z,98258.50
2023-02-24T19:21:12.573Z,98256.59
2023-02-24T19:24:01.335Z,98258.50
2023-02-24T19:26:47.762Z,98238.22
2023-02-24T19:29:34.116Z,98241.25
2023-02-24T19:32:25.305Z,98247.50
2023-02-24T19:35:11.795Z,98238.69
2023-02-24T19:37:58.170Z,98236.13
2023-02-24T19:40:44.969Z,98235.47
2023-02-24T19:43:31.225Z,98233.41
2023-02-24T19:46:18.380Z,98229.28
2023-02-24T19:49:05.246Z,98223.06
2023-02-24T19:51:56.523Z,98221.31
2023-02-24T19:54:42.920Z,98182.63
2023-02-24T19:57:29.408Z,98225.13
2023-02-24T20:00:16.560Z,98201.81
2023-02-24T20:03:03.218Z,98197.00
2023-02-24T20:05:49.828Z,98213.66
2023-02-24T20:08:36.247Z,98210.47
2023-02-24T20:11:25.741Z,98210.78
2023-02-24T20:14:13.115Z,98197.84
2023-02-24T20:16:59.694Z,98194.16
2023-02-24T20:19:46.402Z,98200.56
2023-02-24T20:22:32.847Z,98191.81
2023-02-24T20:25:19.546Z,98192.47
2023-02-24T20:28:09.029Z,98179.50
2023-02-24T20:30:57.963Z,98191.66
2023-02-24T20:33:45.506Z,98185.47
2023-02-24T20:36:32.510Z,98186.38
2023-02-24T20:39:19.021Z,98173.16
2023-02-24T20:42:08.152Z,98187.19
2023-02-24T20:44:54.704Z,98180.13
2023-02-24T20:47:41.243Z,98184.13
2023-02-24T20:50:28.359Z,98180.94
2023-02-24T20:53:15.098Z,98157.59
2023-02-24T20:56:02.831Z,98128.34
2023-02-24T20:58:51.401Z,98171.31
2023-02-24T21:01:39.158Z,98132.03
2023-02-24T21:04:25.668Z,98155.34
2023-02-24T21:07:12.198Z,98103.28
2023-02-24T21:09:59.256Z,98142.53
2023-02-24T21:12:47.439Z,98154.53
2023-02-24T21:15:34.903Z,98147.84
2023-02-24T21:18:22.986Z,98150.06
2023-02-24T21:21:10.078Z,98128.97
2023-02-24T21:23:56.843Z,98132.47
2023-02-24T21:26:51.219Z,98144.47
2023-02-24T21:29:37.481Z,98116.06
2023-02-24T21:32:24.155Z,98122.94
2023-02-24T21:35:10.969Z,98120.53
2023-02-24T21:37:57.738Z,98106.69
2023-02-24T21:40:45.255Z,98110.38
2023-02-24T21:43:32.402Z,98110.88
2023-02-24T21:46:19.060Z,98107.88
2023-02-24T21:49:05.710Z,98115.66
2023-02-24T21:51:52.424Z,98069.25
2023-02-24T21:54:39.207Z,98092.22
2023-02-24T21:57:27.540Z,98065.91
2023-02-24T22:00:19.348Z,98049.81
2023-02-24T22:03:05.765Z,98095.41
2023-02-24T22:05:53.745Z,98084.09
2023-02-24T22:08:43.613Z,98053.47
2023-02-24T22:11:32.588Z,98061.81
2023-02-24T22:14:19.059Z,98077.13
2023-02-24T22:17:05.696Z,98064.03
2023-02-24T22:19:52.002Z,98044.75
2023-02-24T22:22:42.529Z,98073.16
2023-02-24T22:25:28.743Z,98065.53
2023-02-24T22:28:16.348Z,98068.72
2023-02-24T22:31:08.518Z,98055.63
2023-02-24T22:33:54.882Z,98060.72
2023-02-24T22:36:44.527Z,98065.53
2023-02-24T22:39:31.230Z,98067.13
2023-02-24T22:42:17.956Z,98014.44
2023-02-24T22:45:06.867Z,98063.28
2023-02-24T22:47:53.698Z,98056.28
2023-02-24T22:50:40.647Z,98053.72
2023-02-24T22:53:28.462Z,98039.56
2023-02-24T22:56:17.739Z,98012.75
2023-02-24T22:59:04.170Z,98039.06
2023-02-24T23:01:50.967Z,98039.38
2023-02-24T23:04:37.391Z,97998.72
2023-02-24T23:07:24.246Z,98026.28
2023-02-24T23:10:11.097Z,98013.38
2023-02-24T23:13:00.210Z,98030.78
2023-02-24T23:15:48.376Z,98032.66
2023-02-24T23:18:35.688Z,98014.00
2023-02-24T23:21:24.976Z,97988.81
2023-02-24T23:24:13.583Z,98002.84
2023-02-24T23:27:00.404Z,98021.19
2023-02-24T23:29:47.571Z,98001.91
2023-02-24T23:32:34.129Z,98012.91
2023-02-24T23:35:21.108Z,98003.66
2023-02-24T23:38:07.728Z,98000.19
2023-02-24T23:40:54.434Z,97954.56
2023-02-24T23:43:41.258Z,97998.44
2023-02-24T23:46:28.828Z,97973.22
2023-02-24T23:49:15.160Z,97953.88
2023-02-24T23:52:01.959Z,97993.13
2023-02-24T23:54:52.839Z,97994.09
2023-02-24T23:57:39.649Z,97982.91
